Station: EBSP - 25/02/2021 03:51Z (il y a 26 minutes)
EBSP 250350Z AUTO 17008KT CAVOK 10/04 Q1027
Vent du 170º - 8 kt
Visibilité > 10 km et plafond haut ou pas de nuages significatifs
Température: +10ºC - Point de rosée: +04ºC - QNH: 1027 hPa